• Join FlightAware (Why Join?)
  • Login
  • US Flag 
07:51AM EDT


 

Airport Tracker/Info


-or-


 

Live Flight TrackerFlight Track Log ✈ EJM53 ✈ 29-Aug-2013 ✈ KSFO - KMVY

Flight Track Log - Related Links

Times and Time Zones

All times are in EDT time to prevent confusion due to time zone crossing. See the EJM53 flight status page for this flight to view local times or setup timezone preferences in your user account.

Time Position Orientation Groundspeed Altitude Reporting Facility
EDT Latitude Longitude Course Direction KTS MPH feet Rate Location/Type
02:02PM 37.6500 -122.3333 68° East 179 206 2,700  Level Northern Cal TRACON
02:03PM 37.7000 -122.2833 38° Northeast 228 262 5,300 2,520 Climbing Northern Cal TRACON
02:05PM 37.8231 -122.1456 41° Northeast 304 350 10,800 2,460 Climbing Oakland Center
02:06PM 37.8992 -122.0742 36° Northeast 335 386 13,300 2,520 Climbing Oakland Center
02:07PM 37.9201 -121.4278 68° East  Level Estimated
02:07PM 37.9961 -121.9825 37° Northeast 360 414 16,000  Level Oakland Center
02:08PM 38.0806 -121.9008 37° Northeast 377 434 18,200 1,800 Climbing Oakland Center
02:09PM 38.1700 -121.8150 37° Northeast 395 455 19,700 1,500 Climbing Oakland Center
02:10PM 38.2631 -121.7239 38° Northeast 417 480 21,300 1,620 Climbing Oakland Center
02:11PM 38.3567 -121.6350 37° Northeast 420 483 23,100 1,680 Climbing Oakland Center
02:12PM 38.4550 -121.5300 40° Northeast 438 504 24,800 1,440 Climbing Oakland Center
02:13PM 38.5236 -121.4167 52° Northeast 436 502 26,100 1,440 Climbing Oakland Center
02:14PM 38.6103 -121.2625 54° Northeast 446 513 27,800 1,260 Climbing Oakland Center
02:15PM 38.6861 -121.1361 52° Northeast 461 531 28,800 960 Climbing Oakland Center
02:16PM 38.7622 -121.0033 54° Northeast 463 533 29,800 960 Climbing Oakland Center
02:17PM 38.8397 -120.8667 54° Northeast 471 542 30,800 900 Climbing Oakland Center
02:18PM 38.9189 -120.7311 53° Northeast 474 545 31,700 660 Climbing Oakland Center
02:19PM 38.9983 -120.5922 54° Northeast 481 554 32,200 480 Climbing Oakland Center
02:20PM 39.0967 -120.4211 53° Northeast 494 568 32,800 480 Climbing Oakland Center
02:21PM 39.1789 -120.2772 54° Northeast 499 574 33,300 420 Climbing Oakland Center
02:22PM 39.2633 -120.1311 53° Northeast 505 581 33,700 420 Climbing Oakland Center
02:23PM 39.3444 -119.9900 53° Northeast 506 582 34,200 480 Climbing Oakland Center
02:24PM 39.4275 -119.8419 54° Northeast 510 587 34,700 480 Climbing Oakland Center
02:25PM 39.5103 -119.6931 54° Northeast 510 587 35,200 480 Climbing Oakland Center
02:26PM 39.6108 -119.5156 54° Northeast 511 588 35,800 480 Climbing Oakland Center
02:27PM 39.6942 -119.3656 54° Northeast 507 583 36,300 480 Climbing Oakland Center
02:28PM 39.7789 -119.2139 54° Northeast 515 593 36,800 300 Climbing Oakland Center
02:29PM 39.8619 -119.0628 54° Northeast 509 586 37,000 60 Climbing Oakland Center
02:30PM 39.9461 -118.9075 55° Northeast 516 594 37,000  Level Oakland Center
02:31PM 40.0322 -118.7489 55° Northeast 528 608 37,000  Level Oakland Center
02:32PM 40.1181 -118.5864 55° Northeast 538 619 37,000  Level Oakland Center
02:34PM 40.1725 -118.4036 69° East 535 616 37,000  Level Oakland Center
02:34PM 40.2014 -118.2981 70° East 539 620 37,000  Level Salt Lake Center
02:35PM 40.2233 -118.2172 70° East 540 621 37,000  Level Oakland Center
02:36PM 40.2814 -118.0031 70° East 538 619 37,000  Level Oakland Center
02:37PM 40.3292 -117.8272 70° East 536 617 37,000  Level Oakland Center
02:37PM 40.3528 -117.7392 71° East 537 618 37,000  Level Salt Lake Center
02:38PM 40.4075 -117.5347 71° East 532 612 37,000  Level Salt Lake Center
02:39PM 40.4553 -117.3597 70° East 531 611 37,000  Level Salt Lake Center
02:40PM 40.5097 -117.1525 71° East 534 615 37,000  Level Salt Lake Center
02:41PM 40.5578 -116.9733 71° East 534 615 37,000  Level Salt Lake Center
02:42PM 40.6189 -116.7992 65° Northeast 539 620 37,000  Level Salt Lake Center
02:43PM 40.6944 -116.6025 63° Northeast 535 616 37,000  Level Salt Lake Center
02:44PM 40.7606 -116.4347 62° Northeast 537 618 37,000  Level Salt Lake Center
02:45PM 40.8353 -116.2397 63° Northeast 534 615 37,000  Level Salt Lake Center
02:46PM 40.9011 -116.0700 63° Northeast 540 621 37,000  Level Salt Lake Center
02:48PM 40.9739 -115.8708 64° Northeast 539 620 37,000  Level Salt Lake Center
02:49PM 41.0389 -115.7044 63° Northeast 536 617 37,000  Level Salt Lake Center
02:50PM 41.1144 -115.5069 63° Northeast 535 616 37,000  Level Salt Lake Center
02:51PM 41.1772 -115.3369 64° Northeast 536 617 37,000  Level Salt Lake Center
02:52PM 41.2408 -115.1678 63° Northeast 535 616 37,000  Level Salt Lake Center
02:53PM 41.3142 -114.9697 64° Northeast 535 616 37,000  Level Salt Lake Center
02:54PM 41.3836 -114.7775 64° Northeast 535 616 37,000  Level Salt Lake Center
02:55PM 41.4481 -114.6000 64° Northeast 534 615 37,000  Level Salt Lake Center
02:56PM 41.5125 -114.4231 64° Northeast 532 612 37,000  Level Salt Lake Center
02:57PM 41.5753 -114.2450 65° Northeast 531 611 37,000  Level Salt Lake Center
02:58PM 41.6397 -114.0686 64° Northeast 530 610 37,000  Level Salt Lake Center
02:59PM 41.7028 -113.8908 65° Northeast 530 610 37,000  Level Salt Lake Center
03:00PM 41.7781 -113.6772 65° Northeast 529 609 37,000  Level Salt Lake Center
03:01PM 41.8408 -113.4981 65° Northeast 531 611 37,000  Level Salt Lake Center
03:02PM 41.9019 -113.3197 65° Northeast 528 608 37,000  Level Salt Lake Center
03:03PM 41.9650 -113.1403 65° Northeast 530 610 37,000  Level Salt Lake Center
03:04PM 42.0272 -112.9608 65° Northeast 530 610 37,000  Level Salt Lake Center
03:05PM 42.0872 -112.7814 66° East 527 606 37,000  Level Salt Lake Center
03:06PM 42.1489 -112.6008 65° Northeast 529 609 37,000  Level Salt Lake Center
03:07PM 42.2206 -112.3867 66° East 524 603 37,000  Level Salt Lake Center
03:08PM 42.2794 -112.2069 66° East 523 602 37,000  Level Salt Lake Center
03:09PM 42.3378 -112.0247 67° East 527 606 37,000  Level Salt Lake Center
03:10PM 42.3969 -111.8447 66° East 525 604 37,000  Level Salt Lake Center
03:11PM 42.4542 -111.6636 67° East 524 603 37,000  Level Salt Lake Center
03:12PM 42.5133 -111.4819 66° East 526 605 37,000  Level Salt Lake Center
03:13PM 42.5822 -111.2650 67° East 522 601 37,000  Level Salt Lake Center
03:14PM 42.6392 -111.0831 67° East 524 603 37,000  Level Salt Lake Center
03:15PM 42.6908 -110.9164 67° East 522 601 37,000  Level Salt Lake Center
03:16PM 42.7550 -110.7081 67° East 528 608 37,000  Level Salt Lake Center
03:17PM 42.8081 -110.5372 67° East 518 596 37,000  Level Salt Lake Center
03:18PM 42.8689 -110.3369 67° East 514 592 37,000  Level Salt Lake Center
03:20PM 42.9214 -110.1619 68° East 519 597 37,000  Level Salt Lake Center
03:21PM 42.9831 -109.9583 67° East 520 598 37,000  Level Salt Lake Center
03:22PM 43.0325 -109.7919 68° East 520 598 37,000  Level Salt Lake Center
03:23PM 43.0858 -109.6089 68° East 521 600 37,000  Level Salt Lake Center
03:24PM 43.1514 -109.3892 68° East 521 600 37,000  Level Salt Lake Center
03:25PM 43.2047 -109.2072 68° East 519 597 37,000  Level Salt Lake Center
03:26PM 43.2581 -109.0231 68° East 520 598 37,000  Level Salt Lake Center
03:27PM 43.3097 -108.8386 69° East 521 600 37,000  Level Salt Lake Center
03:28PM 43.3625 -108.6586 68° East 513 590 37,000  Level Salt Lake Center
03:29PM 43.4142 -108.4728 69° East 520 598 37,000  Level Salt Lake Center
03:30PM 43.4764 -108.2544 68° East 515 593 37,000  Level Salt Lake Center
03:31PM 43.5311 -108.0711 68° East 519 597 37,000  Level Salt Lake Center
03:32PM 43.5847 -107.8892 68° East 517 595 37,000  Level Salt Lake Center
03:33PM 43.6378 -107.7064 68° East 516 594 37,000  Level Salt Lake Center
03:34PM 43.6908 -107.5239 68° East 516 594 37,000  Level Salt Lake Center
03:35PM 43.7519 -107.3067 69° East 511 588 37,000  Level Salt Lake Center
03:36PM 43.8036 -107.1253 68° East 508 585 37,000  Level Salt Lake Center
03:37PM 43.8561 -106.9406 68° East 515 593 37,000  Level Salt Lake Center
03:38PM 43.9139 -106.7369 68° East 518 596 37,000  Level Salt Lake Center
03:39PM 43.9650 -106.5578 68° East 520 598 37,000  Level Salt Lake Center
03:40PM 44.0233 -106.3453 69° East 519 597 37,000  Level Denver Center
03:41PM 44.0694 -106.1636 70° East 520 598 37,000  Level Denver Center
03:42PM 44.1214 -105.9506 71° East 520 598 37,000  Level Denver Center
03:43PM 44.1667 -105.7689 71° East 519 597 37,000  Level Denver Center
03:44PM 44.2192 -105.5569 71° East 518 596 37,000  Level Denver Center
03:45PM 44.2642 -105.3742 71° East 519 597 37,000  Level Denver Center
03:46PM 44.3139 -105.1636 72° East 514 592 37,000  Level Denver Center
03:47PM 44.3500 -105.0139 71° East 512 589 37,000  Level Denver Center
03:49PM 44.4075 -104.7706 72° East 514 592 37,000  Level Denver Center
03:50PM 44.4500 -104.5878 72° East 516 594 37,000  Level Denver Center
03:51PM 44.4925 -104.4078 72° East 512 589 37,000  Level Denver Center
03:52PM 44.5425 -104.1919 72° East 520 598 37,000  Level Denver Center
03:53PM 44.5842 -104.0097 72° East 517 595 37,000  Level Denver Center
03:54PM 44.6253 -103.8275 72° East 513 590 37,000  Level Denver Center
03:55PM 44.6736 -103.6136 72° East 513 590 37,000  Level Denver Center
03:56PM 44.7242 -103.3833 73° East 512 589 37,000  Level Denver Center
03:57PM 44.7656 -103.1933 73° East 509 586 37,000  Level Denver Center
03:58PM 44.8161 -102.9653 73° East 509 586 37,000  Level Denver Center
03:59PM 44.8575 -102.7761 73° East 508 585 37,000  Level Denver Center
04:00PM 44.8986 -102.5856 73° East 508 585 37,000  Level Denver Center
04:01PM 44.9383 -102.3931 74° East 510 587 37,000  Level Denver Center
04:02PM 44.9711 -102.2403 73° East 509 586 37,000  Level Denver Center
04:03PM 45.0178 -102.0083 74° East 512 589 37,000  Level Denver Center
04:04PM 45.0667 -101.7764 73° East 513 590 37,000  Level Denver Center
04:05PM 45.0961 -101.5786 78° East 513 590 37,000  Level Denver Center
04:06PM 45.1131 -101.3783 83° East 513 590 37,000  Level Denver Center
04:07PM 45.1353 -101.1781 81° East 513 590 37,000  Level Denver Center
04:09PM 45.1683 -100.9344 79° East 521 600 37,000  Level Minneapolis Center
04:10PM 45.1894 -100.7347 81° East 516 594 37,000  Level Minneapolis Center
04:11PM 45.2156 -100.4933 81° East 516 594 37,000  Level Minneapolis Center
04:12PM 45.2367 -100.2908 82° East 514 592 37,000  Level Minneapolis Center
04:13PM 45.2592 -100.0886 81° East 512 589 37,000  Level Minneapolis Center
04:14PM 45.2794 -99.8800 82° East 520 598 37,000  Level Minneapolis Center
04:15PM 45.2981 -99.6744 83° East 520 598 37,000  Level Minneapolis Center
04:16PM 45.3175 -99.4725 82° East 516 594 37,000  Level Minneapolis Center
04:17PM 45.3369 -99.2719 82° East 512 589 37,000  Level Minneapolis Center
04:18PM 45.3558 -99.0703 82° East 513 590 37,000  Level Minneapolis Center
04:19PM 45.3775 -98.8283 83° East 513 590 37,000  Level Minneapolis Center
04:20PM 45.3953 -98.6258 83° East 516 594 37,000  Level Minneapolis Center
04:21PM 45.4128 -98.4228 83° East 516 594 37,000  Level Minneapolis Center
04:22PM 45.4147 -98.2178 89° East 518 596 37,000  Level Minneapolis Center
04:23PM 45.4050 -98.0228 94° East 518 596 37,000  Level Minneapolis Center
04:24PM 45.3964 -97.7775 93° East 518 596 37,000  Level Minneapolis Center
04:25PM 45.3886 -97.5750 93° East 516 594 37,000  Level Minneapolis Center
04:26PM 45.3806 -97.3714 93° East 515 593 37,000  Level Minneapolis Center
04:27PM 45.3725 -97.1694 93° East 512 589 37,000  Level Minneapolis Center
04:28PM 45.3633 -96.9683 94° East 510 587 37,000  Level Minneapolis Center
04:29PM 45.3539 -96.7703 94° East 505 581 37,000  Level Minneapolis Center
04:30PM 45.3467 -96.6100 94° East 506 582 37,000  Level Minneapolis Center
04:32PM 45.3331 -96.3328 94° East 503 579 37,000  Level Minneapolis Center
04:33PM 45.3214 -96.0944 94° East 504 580 37,000  Level Minneapolis Center
04:34PM 45.3106 -95.8967 94° East 502 578 37,000  Level Minneapolis Center
04:35PM 45.3006 -95.6994 94° East 502 578 37,000  Level Minneapolis Center
04:36PM 45.2883 -95.5006 95° East 504 580 37,000  Level Minneapolis Center
04:37PM 45.2772 -95.3033 95° East 501 577 37,000  Level Minneapolis Center
04:38PM 45.2614 -95.0289 95° East 498 573 37,000  Level Minneapolis Center
04:39PM 45.2486 -94.8319 95° East 500 575 37,000  Level Minneapolis Center
04:40PM 45.2361 -94.6372 95° East 498 573 37,000  Level Minneapolis Center
04:41PM 45.2242 -94.4569 95° East 498 573 37,000  Level Minneapolis Center
04:42PM 45.2078 -94.2250 96° East 494 568 37,000  Level Minneapolis Center
04:43PM 45.1942 -94.0311 96° East 495 570 37,000  Level Minneapolis Center
04:44PM 45.1811 -93.8364 95° East 495 570 37,000  Level Minneapolis Center
04:45PM 45.1672 -93.6411 96° East 497 572 37,000  Level Minneapolis Center
04:46PM 45.1522 -93.4439 96° East 499 574 37,000  Level Minneapolis Center
04:47PM 45.1369 -93.2458 96° East 501 577 37,000  Level Minneapolis Center
04:48PM 45.1167 -93.0475 98° East 504 580 37,000  Level Minneapolis Center
04:49PM 45.0964 -92.8106 97° East 503 579 37,000  Level Minneapolis Center
04:50PM 45.0783 -92.6167 97° East 497 572 37,000  Level Minneapolis Center
04:51PM 45.0608 -92.4217 97° East 499 574 37,000  Level Minneapolis Center
04:52PM 45.0414 -92.2261 98° East 502 578 37,000  Level Minneapolis Center
04:53PM 45.0211 -92.0306 98° East 503 579 37,000  Level Minneapolis Center
04:55PM 45.0003 -91.8356 99° East 504 580 37,000  Level Minneapolis Center
04:56PM 44.9792 -91.6425 99° East 502 578 37,000 840 Level Minneapolis Center
04:57PM 44.9536 -91.4167 99° East 493 567 38,800 960 Climbing Minneapolis Center
04:58PM 44.9328 -91.2342 99° East 477 549 39,000 60 Climbing Minneapolis Center
04:59PM 44.9169 -91.0853 98° East 479 551 39,000  Level Minneapolis Center
05:00PM 44.8906 -90.8517 99° East 491 565 39,000  Level Minneapolis Center
05:01PM 44.8689 -90.6583 99° East 499 574 39,000  Level Minneapolis Center
05:02PM 44.8375 -90.4694 103° East 497 572 39,000  Level Minneapolis Center
05:03PM 44.7994 -90.2444 103° East 496 571 39,000  Level Minneapolis Center
05:04PM 44.7686 -90.0547 103° East 498 573 39,000  Level Minneapolis Center
05:05PM 44.7367 -89.8675 103° East 496 571 39,000  Level Minneapolis Center
05:06PM 44.7050 -89.6806 103° East 495 570 39,000  Level Minneapolis Center
05:07PM 44.6692 -89.4853 104° East 481 554 39,000  Level Minneapolis Center
05:08PM 44.6372 -89.3028 104° East 479 551 39,000  Level Minneapolis Center
05:09PM 44.6056 -89.1197 104° East 481 554 39,000  Level Minneapolis Center
05:10PM 44.5678 -88.9094 104° East 477 549 39,000  Level Minneapolis Center
05:11PM 44.5344 -88.7275 104° East 480 552 39,000  Level Minneapolis Center
05:12PM 44.5017 -88.5447 104° East 481 554 39,000  Level Minneapolis Center
05:13PM 44.4678 -88.3633 105° East 480 552 39,000  Level Minneapolis Center
05:14PM 44.4350 -88.1806 104° East 483 556 39,000  Level Minneapolis Center
05:15PM 44.4011 -88.0022 105° East 476 548 39,000  Level Minneapolis Center
05:16PM 44.3614 -87.7886 105° East 482 555 39,000  Level Minneapolis Center
05:17PM 44.3261 -87.6050 105° East 486 559 39,000  Level Minneapolis Center
05:18PM 44.2900 -87.4211 105° East 488 562 39,000  Level Minneapolis Center
05:19PM 44.2531 -87.2356 105° East 491 565 39,000  Level Minneapolis Center
05:20PM 44.2150 -87.0478 106° East 495 570 39,000  Level Minneapolis Center
05:21PM 44.1772 -86.8633 106° East 497 572 39,000  Level Minneapolis Center
05:22PM 44.1394 -86.6792 106° East 498 573 39,000  Level Minneapolis Center
05:23PM 44.1011 -86.4900 106° East 499 574 39,000  Level Minneapolis Center
05:25PM 44.0561 -86.2678 106° East 498 573 39,000  Level Minneapolis Center
05:26PM 44.0175 -86.0828 106° East 498 573 39,000  Level Minneapolis Center
05:27PM 43.9797 -85.8978 106° East 497 572 39,000  Level Minneapolis Center
05:28PM 43.9408 -85.7142 106° East 496 571 39,000  Level Minneapolis Center
05:29PM 43.9017 -85.5306 106° East 496 571 39,000  Level Minneapolis Center
05:30PM 43.8703 -85.3858 107° East 493 567 39,000  Level Minneapolis Center
05:31PM 43.8236 -85.1681 106° East 491 565 39,000  Level Minneapolis Center
05:32PM 43.7753 -84.9492 107° East 493 567 39,000  Level Minneapolis Center
05:33PM 43.7347 -84.7675 107° East 494 568 39,000  Level Minneapolis Center
05:34PM 43.6950 -84.5864 107° East 494 568 39,000  Level Minneapolis Center
05:35PM 43.6550 -84.4064 107° East 492 566 39,000  Level Minneapolis Center
05:36PM 43.6053 -84.1919 108° East 490 564 39,000  Level Minneapolis Center
05:37PM 43.5736 -84.0114 104° East 487 560 39,000  Level Minneapolis Center
05:38PM 43.5878 -83.7942 85° East 477 549 39,000  Level Minneapolis Center
05:39PM 43.5953 -83.6144 87° East 472 543 39,000  Level Minneapolis Center
05:40PM 43.5833 -83.4833 97° East 470 541 39,000  Level Toronto Center
05:40PM 43.6011 -83.4097 72° East 466 536 39,000  Level Cleveland Center
05:41PM 43.6072 -83.2294 87° East 466 536 39,000  Level Cleveland Center
05:42PM 43.6156 -83.0461 86° East 466 536 39,000  Level Cleveland Center
05:43PM 43.6256 -82.8942 85° East 470 541 39,000  Level Minneapolis Center
05:44PM 43.6167 -82.7667 95° East 470 541 39,000  Level Toronto Center
05:45PM 43.6333 -82.5667 83° East 460 529 39,000  Level Toronto Center
05:46PM 43.6333 -82.4000 90° East 460 529 39,000  Level Toronto Center
05:47PM 43.6333 -82.2333 90° East 460 529 39,000  Level Toronto Center
05:48PM 43.6333 -82.0500 90° East 450 518 39,000  Level Toronto Center
05:49PM 43.6500 -81.8833 82° East 450 518 39,000  Level Toronto Center
05:50PM 43.6500 -81.7000 90° East 450 518 39,000  Level Toronto Center
05:51PM 43.6500 -81.5167 90° East 450 518 39,000  Level Toronto Center
05:52PM 43.6500 -81.3667 90° East 450 518 39,000  Level Toronto Center
05:53PM 43.6500 -81.1833 90° East 450 518 39,000  Level Toronto Center
05:54PM 43.6667 -81.0167 82° East 450 518 39,000  Level Toronto Center
05:55PM 43.6667 -80.8500 90° East 440 506 39,000  Level Toronto Center
05:56PM 43.6833 -80.6667 83° East 440 506 39,000  Level Toronto Center
05:57PM 43.6833 -80.5167 90° East 440 506 39,000  Level Toronto Center
05:58PM 43.6833 -80.3500 90° East 440 506 39,000  Level Toronto Center
05:59PM 43.6833 -80.1833 90° East 440 506 39,000  Level Toronto Center
06:00PM 43.6833 -80.0000 90° East 440 506 39,000  Level Toronto Center
06:01PM 43.6833 -79.8333 90° East 440 506 39,000  Level Toronto Center
06:02PM 43.6833 -79.6500 90° East 450 518 39,000  Level Toronto Center
06:03PM 43.6833 -79.4667 90° East 440 506 39,000  Level Toronto Center
06:04PM 43.7000 -79.3333 80° East 430 495 39,000  Level Toronto Center
06:05PM 43.7000 -79.1500 90° East 440 506 39,000  Level Toronto Center
06:06PM 43.7000 -78.9833 90° East 440 506 39,000  Level Toronto Center
06:07PM 43.7000 -78.8333 90° East 440 506 39,000  Level Toronto Center
06:08PM 43.7000 -78.6333 90° East 440 506 39,000  Level Toronto Center
06:09PM 43.6833 -78.4833 99° East 440 506 39,000  Level Toronto Center
06:10PM 43.6833 -78.3167 90° East 430 495 39,000  Level Toronto Center
06:11PM 43.6833 -78.1500 90° East 430 495 39,000  Level Toronto Center
06:12PM 43.6833 -77.9667 90° East 430 495 39,000  Level Toronto Center
06:13PM 43.6833 -77.8167 90° East 440 506 39,000  Level Toronto Center
06:14PM 43.6833 -77.6500 90° East 440 506 39,000  Level Toronto Center
06:15PM 43.7000 -77.4667 83° East 440 506 39,000  Level Toronto Center
06:16PM 43.6833 -77.3000 98° East 450 518 39,000  Level Toronto Center
06:17PM 43.6833 -77.1167 90° East 450 518 39,000  Level Toronto Center
06:19PM 43.6833 -76.8000 90° East 450 518 39,000  Level Toronto Center
06:20PM 43.6667 -76.6167 97° East 450 518 39,000  Level Toronto Center
06:21PM 43.6667 -76.4500 90° East 450 518 39,000  Level Toronto Center
06:22PM 43.6667 -76.2667 90° East 450 518 39,000  Level Toronto Center
06:23PM 43.6667 -76.1000 90° East 460 529 39,000  Level Toronto Center
06:24PM 43.6500 -75.9167 97° East 450 518 39,000  Level Toronto Center
06:25PM 43.6667 -75.7333 83° East 460 529 39,000  Level Toronto Center
06:26PM 43.6500 -75.5500 97° East 460 529 39,000  Level Toronto Center
06:27PM 43.6500 -75.4000 90° East 460 529 39,000  Level Toronto Center
06:28PM 43.6500 -75.2333 90° East 460 529 39,000  Level Toronto Center
06:29PM 43.6333 -75.0500 97° East 460 529 39,000  Level Toronto Center
06:30PM 43.6333 -74.8667 90° East 470 541 39,000  Level Toronto Center
06:31PM 43.6167 -74.6833 97° East 460 529 39,000  Level Toronto Center
06:32PM 43.6167 -74.5167 90° East 470 541 39,000  Level Toronto Center
06:33PM 43.6000 -74.3333 97° East 460 529 39,000  Level Toronto Center
06:34PM 43.6000 -74.1667 90° East 470 541 39,000  Level Toronto Center
06:35PM 43.6075 -73.9542 87° East 461 531 39,000  Level Boston Center
06:36PM 43.6014 -73.7703 93° East 467 537 39,000  Level Boston Center
06:37PM 43.5931 -73.5897 94° East 467 537 39,000  Level Boston Center
06:38PM 43.5864 -73.4089 93° East 467 537 39,000  Level Boston Center
06:39PM 43.5772 -73.2311 94° East 467 537 39,000  Level Boston Center
06:40PM 43.5678 -73.0503 94° East 467 537 39,000  Level Boston Center
06:41PM 43.5647 -72.8469 91° East 473 544 39,000 -360 Level Boston Center
06:42PM 43.5547 -72.6664 94° East 473 544 38,300 -900 Descending Boston Center
06:43PM 43.5425 -72.4831 95° East 478 550 37,300 -1,020 Descending Boston Center
06:44PM 43.5319 -72.2969 94° East 478 550 36,300 -1,260 Descending Boston Center
06:45PM 43.5253 -72.1222 93° East 478 550 34,800 -1,500 Descending Boston Center
06:46PM 43.5122 -71.9506 96° East 465 535 33,300 -1,500 Descending Boston Center
06:47PM 43.5031 -71.7731 94° East 460 529 31,800 -1,200 Descending Boston Center
06:48PM 43.4892 -71.5872 96° East 472 543 31,000 -420 Descending Boston Center
06:49PM 43.4817 -71.4100 93° East 472 543 31,000  Level Boston Center
06:50PM 43.4672 -71.2272 96° East 478 550 31,000  Level Boston Center
06:51PM 43.4611 -71.0614 93° East 478 550 31,000 -300 Level Boston Center
06:52PM 43.4506 -70.8758 94° East 478 550 30,400 -840 Descending Boston Center
06:53PM 43.4314 -70.6989 98° East 478 550 29,400 -1,020 Descending Boston Center
06:54PM 43.3356 -70.5703 136° Southeast 446 513 28,400 -1,020 Descending Boston Center
06:55PM 43.1969 -70.5147 164° South 453 521 27,400 -1,020 Descending Boston Center
06:56PM 43.0647 -70.4622 164° South 473 544 26,400 -1,320 Descending Boston Center
06:57PM 42.9367 -70.4094 163° South 480 552 24,800 -1,860 Descending Boston Center
06:58PM 42.7981 -70.3547 164° South 480 552 22,700 -1,980 Descending Boston Center
06:59PM 42.6806 -70.3050 163° South 468 539 20,900 -1,800 Descending Boston Center
07:00PM 42.5628 -70.2583 164° South 455 524 19,200 -1,560 Descending Boston Center
07:01PM 42.4661 -70.2194 163° South 432 497 17,800 -1,620 Descending Boston Center
07:02PM 42.3569 -70.1756 163° South 422 486 16,000 -1,680 Descending Boston Center
07:03PM 42.2519 -70.1317 163° South 411 473 14,400 -1,620 Descending Boston Center
07:04PM 42.1467 -70.0906 164° South 398 458 12,900 -1,500 Descending Boston Center
07:05PM 42.0586 -70.0547 163° South 375 432 11,500 -1,080 Descending Boston Center
07:06PM 41.9581 -70.0392 173° South 318 366 10,800 -900 Descending Boston Center
07:07PM 41.8931 -70.1142 221° Southwest 290 334 9,800 -1,020 Descending Boston Center
07:08PM 41.8342 -70.1914 224° Southwest 285 328 8,800 -1,020 Descending Boston Center
07:09PM 41.7731 -70.2689 223° Southwest 296 341 7,800 -1,020 Descending Boston Center
07:10PM 41.7142 -70.3431 223° Southwest 301 346 6,800 -1,020 Descending Boston Center
07:11PM 41.6550 -70.4172 223° Southwest 301 346 5,800 -960 Descending Boston Center
07:12PM 41.5958 -70.4914 223° Southwest 296 341 4,900 -480 Descending Boston Center
07:13PM 41.5386 -70.5653 224° Southwest 296 341 4,900  Level Boston Center
07:14PM 41.4794 -70.6364 222° Southwest 291 335 5,000  Climbing Boston Center
07:15PM 41.4261 -70.7014 222° Southwest 291 335 5,000 -300 Level Boston Center
07:16PM 41.3628 -70.7778 222° Southwest 291 335 4,500 -540 Descending Boston Center
07:18PM 41.3934 -70.6139 75° East  Level Estimated
07:25PM 41.3934 -70.6139 75° East  Level Estimated
07:26PM 41.3934 -70.6139 75° East  Level Estimated
07:27PM 41.3934 -70.6139 75° East  Level Estimated
07:28PM 41.3934 -70.6139 75° East  Level Estimated
07:29PM 41.3934 -70.6139 75° East  Level Estimated
07:30PM 41.3934 -70.6139 75° East  Level Estimated
07:31PM 41.3934 -70.6139 75° East  Level Estimated